sensor_id;sensor_type;location;lat;lon;timestamp;P1;durP1;ratioP1;P2;durP2;ratioP2
38859;SDS011;24609;48.316;16.174;2023-05-07T00:01:50;6.95;;;3.28;;
38859;SDS011;24609;48.316;16.174;2023-05-07T00:04:15;3.50;;;2.70;;
38859;SDS011;24609;48.316;16.174;2023-05-07T00:06:41;7.35;;;3.55;;
38859;SDS011;24609;48.316;16.174;2023-05-07T00:09:06;4.53;;;3.30;;
38859;SDS011;24609;48.316;16.174;2023-05-07T00:11:32;7.40;;;4.30;;
38859;SDS011;24609;48.316;16.174;2023-05-07T00:13:59;9.40;;;4.85;;
38859;SDS011;24609;48.316;16.174;2023-05-07T00:16:24;7.93;;;4.35;;
38859;SDS011;24609;48.316;16.174;2023-05-07T00:18:50;7.90;;;4.55;;
38859;SDS011;24609;48.316;16.174;2023-05-07T00:21:16;6.68;;;4.10;;
38859;SDS011;24609;48.316;16.174;2023-05-07T00:23:41;5.57;;;4.47;;
38859;SDS011;24609;48.316;16.174;2023-05-07T00:26:07;6.40;;;3.35;;
38859;SDS011;24609;48.316;16.174;2023-05-07T00:28:33;4.35;;;3.33;;
38859;SDS011;24609;48.316;16.174;2023-05-07T00:30:58;3.35;;;3.05;;
38859;SDS011;24609;48.316;16.174;2023-05-07T00:33:24;5.13;;;3.95;;
38859;SDS011;24609;48.316;16.174;2023-05-07T00:35:51;3.92;;;3.10;;
38859;SDS011;24609;48.316;16.174;2023-05-07T00:38:17;5.47;;;3.38;;
38859;SDS011;24609;48.316;16.174;2023-05-07T00:40:43;4.40;;;3.10;;
38859;SDS011;24609;48.316;16.174;2023-05-07T00:43:08;3.80;;;2.97;;
38859;SDS011;24609;48.316;16.174;2023-05-07T00:45:34;4.95;;;3.38;;
38859;SDS011;24609;48.316;16.174;2023-05-07T00:48:00;4.07;;;2.85;;
38859;SDS011;24609;48.316;16.174;2023-05-07T00:50:27;4.70;;;3.10;;
38859;SDS011;24609;48.316;16.174;2023-05-07T00:52:53;9.18;;;5.13;;
38859;SDS011;24609;48.316;16.174;2023-05-07T00:55:20;5.10;;;2.85;;
38859;SDS011;24609;48.316;16.174;2023-05-07T00:57:46;6.45;;;4.50;;
38859;SDS011;24609;48.316;16.174;2023-05-07T01:00:12;7.80;;;4.07;;
38859;SDS011;24609;48.316;16.174;2023-05-07T01:02:38;4.65;;;3.53;;
38859;SDS011;24609;48.316;16.174;2023-05-07T01:05:05;5.40;;;2.78;;
38859;SDS011;24609;48.316;16.174;2023-05-07T01:07:32;5.72;;;2.78;;
38859;SDS011;24609;48.316;16.174;2023-05-07T01:09:59;4.32;;;3.00;;
38859;SDS011;24609;48.316;16.174;2023-05-07T01:12:26;4.72;;;3.10;;
38859;SDS011;24609;48.316;16.174;2023-05-07T01:14:53;12.35;;;3.20;;
38859;SDS011;24609;48.316;16.174;2023-05-07T01:17:19;4.60;;;3.03;;
38859;SDS011;24609;48.316;16.174;2023-05-07T01:19:45;4.07;;;2.80;;
38859;SDS011;24609;48.316;16.174;2023-05-07T01:22:12;4.18;;;2.78;;
38859;SDS011;24609;48.316;16.174;2023-05-07T01:24:41;3.58;;;2.80;;
38859;SDS011;24609;48.316;16.174;2023-05-07T01:27:08;4.78;;;3.38;;
38859;SDS011;24609;48.316;16.174;2023-05-07T01:29:33;4.43;;;2.85;;
38859;SDS011;24609;48.316;16.174;2023-05-07T01:32:00;4.57;;;3.67;;
38859;SDS011;24609;48.316;16.174;2023-05-07T01:34:27;3.67;;;3.35;;
38859;SDS011;24609;48.316;16.174;2023-05-07T01:36:55;5.97;;;3.70;;
38859;SDS011;24609;48.316;16.174;2023-05-07T01:39:24;8.18;;;3.70;;
38859;SDS011;24609;48.316;16.174;2023-05-07T01:41:52;5.07;;;3.08;;
38859;SDS011;24609;48.316;16.174;2023-05-07T01:44:22;4.45;;;3.03;;
38859;SDS011;24609;48.316;16.174;2023-05-07T01:46:48;6.22;;;3.60;;
38859;SDS011;24609;48.316;16.174;2023-05-07T01:49:15;5.03;;;3.35;;
38859;SDS011;24609;48.316;16.174;2023-05-07T01:51:41;5.57;;;3.35;;
38859;SDS011;24609;48.316;16.174;2023-05-07T01:54:07;3.05;;;2.72;;
38859;SDS011;24609;48.316;16.174;2023-05-07T01:56:33;5.30;;;3.95;;
38859;SDS011;24609;48.316;16.174;2023-05-07T01:58:59;5.03;;;2.63;;
38859;SDS011;24609;48.316;16.174;2023-05-07T02:01:25;3.47;;;3.17;;
38859;SDS011;24609;48.316;16.174;2023-05-07T02:03:51;7.28;;;4.43;;
38859;SDS011;24609;48.316;16.174;2023-05-07T02:06:17;5.93;;;4.45;;
38859;SDS011;24609;48.316;16.174;2023-05-07T02:08:42;5.38;;;3.92;;
38859;SDS011;24609;48.316;16.174;2023-05-07T02:11:08;7.55;;;4.50;;
38859;SDS011;24609;48.316;16.174;2023-05-07T02:13:34;3.75;;;3.42;;
38859;SDS011;24609;48.316;16.174;2023-05-07T02:16:00;5.13;;;3.20;;
38859;SDS011;24609;48.316;16.174;2023-05-07T02:18:26;5.50;;;3.58;;
38859;SDS011;24609;48.316;16.174;2023-05-07T02:20:52;4.88;;;2.88;;
38859;SDS011;24609;48.316;16.174;2023-05-07T02:23:17;5.70;;;3.85;;
38859;SDS011;24609;48.316;16.174;2023-05-07T02:25:43;5.10;;;3.33;;
38859;SDS011;24609;48.316;16.174;2023-05-07T02:28:09;4.63;;;3.22;;
38859;SDS011;24609;48.316;16.174;2023-05-07T02:30:36;9.52;;;3.65;;
38859;SDS011;24609;48.316;16.174;2023-05-07T02:33:02;5.22;;;4.20;;
38859;SDS011;24609;48.316;16.174;2023-05-07T02:35:28;7.50;;;4.18;;
38859;SDS011;24609;48.316;16.174;2023-05-07T02:37:53;3.60;;;3.30;;
38859;SDS011;24609;48.316;16.174;2023-05-07T02:40:19;5.40;;;3.35;;
38859;SDS011;24609;48.316;16.174;2023-05-07T02:42:45;4.38;;;3.53;;
38859;SDS011;24609;48.316;16.174;2023-05-07T02:45:10;3.83;;;3.20;;
38859;SDS011;24609;48.316;16.174;2023-05-07T02:47:36;4.40;;;3.85;;
38859;SDS011;24609;48.316;16.174;2023-05-07T02:50:02;7.25;;;4.10;;
38859;SDS011;24609;48.316;16.174;2023-05-07T02:52:28;7.07;;;4.45;;
38859;SDS011;24609;48.316;16.174;2023-05-07T02:54:54;4.72;;;4.32;;
38859;SDS011;24609;48.316;16.174;2023-05-07T02:57:20;6.55;;;4.20;;
38859;SDS011;24609;48.316;16.174;2023-05-07T02:59:45;7.13;;;4.88;;
38859;SDS011;24609;48.316;16.174;2023-05-07T03:02:11;5.53;;;4.60;;
38859;SDS011;24609;48.316;16.174;2023-05-07T03:04:39;5.85;;;4.53;;
38859;SDS011;24609;48.316;16.174;2023-05-07T03:07:05;5.53;;;4.10;;
38859;SDS011;24609;48.316;16.174;2023-05-07T03:09:30;5.07;;;4.38;;
38859;SDS011;24609;48.316;16.174;2023-05-07T03:11:56;6.63;;;4.50;;
38859;SDS011;24609;48.316;16.174;2023-05-07T03:14:22;6.82;;;4.90;;
38859;SDS011;24609;48.316;16.174;2023-05-07T03:16:48;5.90;;;4.10;;
38859;SDS011;24609;48.316;16.174;2023-05-07T03:19:15;5.57;;;4.57;;
38859;SDS011;24609;48.316;16.174;2023-05-07T03:21:41;5.97;;;4.20;;
38859;SDS011;24609;48.316;16.174;2023-05-07T03:24:06;5.82;;;4.40;;
38859;SDS011;24609;48.316;16.174;2023-05-07T03:26:32;5.55;;;4.68;;
38859;SDS011;24609;48.316;16.174;2023-05-07T03:28:58;6.32;;;5.72;;
38859;SDS011;24609;48.316;16.174;2023-05-07T03:31:23;8.30;;;6.03;;
38859;SDS011;24609;48.316;16.174;2023-05-07T03:33:58;7.03;;;5.60;;
38859;SDS011;24609;48.316;16.174;2023-05-07T03:36:24;5.55;;;4.95;;
38859;SDS011;24609;48.316;16.174;2023-05-07T03:38:51;5.75;;;4.85;;
38859;SDS011;24609;48.316;16.174;2023-05-07T03:41:17;7.32;;;5.43;;
38859;SDS011;24609;48.316;16.174;2023-05-07T03:43:43;6.47;;;5.70;;
38859;SDS011;24609;48.316;16.174;2023-05-07T03:46:08;7.65;;;6.85;;
38859;SDS011;24609;48.316;16.174;2023-05-07T03:48:34;8.68;;;7.78;;
38859;SDS011;24609;48.316;16.174;2023-05-07T03:51:00;21.30;;;12.40;;
38859;SDS011;24609;48.316;16.174;2023-05-07T03:53:25;41.70;;;9.23;;
38859;SDS011;24609;48.316;16.174;2023-05-07T03:55:51;6.00;;;5.05;;
38859;SDS011;24609;48.316;16.174;2023-05-07T03:58:17;7.00;;;4.80;;
38859;SDS011;24609;48.316;16.174;2023-05-07T04:00:42;6.28;;;5.68;;
38859;SDS011;24609;48.316;16.174;2023-05-07T04:03:08;9.68;;;7.32;;
38859;SDS011;24609;48.316;16.174;2023-05-07T04:05:34;9.50;;;7.43;;
38859;SDS011;24609;48.316;16.174;2023-05-07T04:07:59;11.07;;;7.88;;
38859;SDS011;24609;48.316;16.174;2023-05-07T04:10:26;10.68;;;8.88;;
38859;SDS011;24609;48.316;16.174;2023-05-07T04:12:53;10.10;;;7.75;;
38859;SDS011;24609;48.316;16.174;2023-05-07T04:15:19;10.82;;;8.98;;
38859;SDS011;24609;48.316;16.174;2023-05-07T04:17:45;8.88;;;8.02;;
38859;SDS011;24609;48.316;16.174;2023-05-07T04:20:14;10.77;;;8.40;;
38859;SDS011;24609;48.316;16.174;2023-05-07T04:22:41;10.05;;;8.32;;
38859;SDS011;24609;48.316;16.174;2023-05-07T04:25:07;8.65;;;7.78;;
38859;SDS011;24609;48.316;16.174;2023-05-07T04:27:36;10.13;;;8.05;;
38859;SDS011;24609;48.316;16.174;2023-05-07T04:30:02;10.07;;;7.28;;
38859;SDS011;24609;48.316;16.174;2023-05-07T04:32:29;11.73;;;8.00;;
38859;SDS011;24609;48.316;16.174;2023-05-07T04:34:55;9.00;;;8.10;;
38859;SDS011;24609;48.316;16.174;2023-05-07T04:37:21;11.65;;;9.02;;
38859;SDS011;24609;48.316;16.174;2023-05-07T04:39:47;9.48;;;8.45;;
38859;SDS011;24609;48.316;16.174;2023-05-07T04:42:16;9.32;;;8.32;;
38859;SDS011;24609;48.316;16.174;2023-05-07T04:44:45;10.10;;;8.80;;
38859;SDS011;24609;48.316;16.174;2023-05-07T04:47:11;9.00;;;8.10;;
38859;SDS011;24609;48.316;16.174;2023-05-07T04:49:40;11.35;;;9.57;;
38859;SDS011;24609;48.316;16.174;2023-05-07T04:52:05;9.57;;;8.53;;
38859;SDS011;24609;48.316;16.174;2023-05-07T04:54:31;12.15;;;10.80;;
38859;SDS011;24609;48.316;16.174;2023-05-07T04:56:56;10.65;;;9.52;;
38859;SDS011;24609;48.316;16.174;2023-05-07T04:59:22;11.20;;;9.45;;
38859;SDS011;24609;48.316;16.174;2023-05-07T05:01:48;10.75;;;8.82;;
38859;SDS011;24609;48.316;16.174;2023-05-07T05:04:14;13.30;;;10.77;;
38859;SDS011;24609;48.316;16.174;2023-05-07T05:06:39;13.20;;;10.45;;
38859;SDS011;24609;48.316;16.174;2023-05-07T05:09:05;11.70;;;10.50;;
38859;SDS011;24609;48.316;16.174;2023-05-07T05:11:32;14.80;;;13.15;;
38859;SDS011;24609;48.316;16.174;2023-05-07T05:13:58;13.95;;;12.18;;
38859;SDS011;24609;48.316;16.174;2023-05-07T05:16:25;14.70;;;11.85;;
38859;SDS011;24609;48.316;16.174;2023-05-07T05:18:51;14.90;;;13.30;;
38859;SDS011;24609;48.316;16.174;2023-05-07T05:21:19;19.17;;;16.90;;
38859;SDS011;24609;48.316;16.174;2023-05-07T05:23:45;16.80;;;14.50;;
38859;SDS011;24609;48.316;16.174;2023-05-07T05:26:11;17.48;;;14.13;;
38859;SDS011;24609;48.316;16.174;2023-05-07T05:28:36;15.35;;;13.75;;
38859;SDS011;24609;48.316;16.174;2023-05-07T05:31:02;14.50;;;12.95;;
38859;SDS011;24609;48.316;16.174;2023-05-07T05:33:28;17.20;;;14.65;;
38859;SDS011;24609;48.316;16.174;2023-05-07T05:35:54;14.02;;;12.52;;
38859;SDS011;24609;48.316;16.174;2023-05-07T05:38:19;13.57;;;12.15;;
38859;SDS011;24609;48.316;16.174;2023-05-07T05:40:46;13.40;;;12.10;;
38859;SDS011;24609;48.316;16.174;2023-05-07T05:43:12;14.88;;;12.63;;
38859;SDS011;24609;48.316;16.174;2023-05-07T05:45:38;15.18;;;13.02;;
38859;SDS011;24609;48.316;16.174;2023-05-07T05:48:05;13.35;;;12.05;;
38859;SDS011;24609;48.316;16.174;2023-05-07T05:50:31;15.25;;;13.55;;
38859;SDS011;24609;48.316;16.174;2023-05-07T05:52:56;14.20;;;12.70;;
38859;SDS011;24609;48.316;16.174;2023-05-07T05:55:22;13.77;;;12.40;;
38859;SDS011;24609;48.316;16.174;2023-05-07T05:57:49;13.25;;;11.85;;
38859;SDS011;24609;48.316;16.174;2023-05-07T06:00:15;15.00;;;12.13;;
38859;SDS011;24609;48.316;16.174;2023-05-07T06:02:41;13.93;;;12.45;;
38859;SDS011;24609;48.316;16.174;2023-05-07T06:05:07;13.43;;;12.02;;
38859;SDS011;24609;48.316;16.174;2023-05-07T06:07:34;15.18;;;13.57;;
38859;SDS011;24609;48.316;16.174;2023-05-07T06:10:00;12.35;;;11.07;;
38859;SDS011;24609;48.316;16.174;2023-05-07T06:12:26;18.40;;;14.75;;
38859;SDS011;24609;48.316;16.174;2023-05-07T06:14:51;16.85;;;14.38;;
38859;SDS011;24609;48.316;16.174;2023-05-07T06:17:17;21.33;;;19.13;;
38859;SDS011;24609;48.316;16.174;2023-05-07T06:19:43;21.42;;;18.25;;
38859;SDS011;24609;48.316;16.174;2023-05-07T06:22:08;18.70;;;16.73;;
38859;SDS011;24609;48.316;16.174;2023-05-07T06:24:34;18.85;;;16.85;;
38859;SDS011;24609;48.316;16.174;2023-05-07T06:27:00;20.23;;;17.27;;
38859;SDS011;24609;48.316;16.174;2023-05-07T06:29:26;18.25;;;15.60;;
38859;SDS011;24609;48.316;16.174;2023-05-07T06:31:55;17.80;;;15.10;;
38859;SDS011;24609;48.316;16.174;2023-05-07T06:34:20;21.30;;;19.25;;
38859;SDS011;24609;48.316;16.174;2023-05-07T06:36:46;16.75;;;15.15;;
38859;SDS011;24609;48.316;16.174;2023-05-07T06:39:12;17.90;;;14.18;;
38859;SDS011;24609;48.316;16.174;2023-05-07T06:41:37;19.55;;;17.63;;
38859;SDS011;24609;48.316;16.174;2023-05-07T06:44:04;20.00;;;17.52;;
38859;SDS011;24609;48.316;16.174;2023-05-07T06:46:30;18.98;;;16.77;;
38859;SDS011;24609;48.316;16.174;2023-05-07T06:48:55;18.33;;;16.15;;
38859;SDS011;24609;48.316;16.174;2023-05-07T06:51:21;23.08;;;20.65;;
38859;SDS011;24609;48.316;16.174;2023-05-07T06:53:47;19.15;;;16.98;;
38859;SDS011;24609;48.316;16.174;2023-05-07T06:56:13;21.90;;;19.58;;
38859;SDS011;24609;48.316;16.174;2023-05-07T06:58:39;27.85;;;19.70;;
38859;SDS011;24609;48.316;16.174;2023-05-07T07:01:05;22.08;;;19.67;;
38859;SDS011;24609;48.316;16.174;2023-05-07T07:03:30;22.33;;;20.02;;
38859;SDS011;24609;48.316;16.174;2023-05-07T07:05:56;25.95;;;23.30;;
38859;SDS011;24609;48.316;16.174;2023-05-07T07:08:22;19.90;;;17.90;;
38859;SDS011;24609;48.316;16.174;2023-05-07T07:10:48;20.98;;;17.33;;
38859;SDS011;24609;48.316;16.174;2023-05-07T07:13:13;26.55;;;23.70;;
38859;SDS011;24609;48.316;16.174;2023-05-07T07:15:39;20.40;;;18.30;;
38859;SDS011;24609;48.316;16.174;2023-05-07T07:18:05;22.23;;;17.77;;
38859;SDS011;24609;48.316;16.174;2023-05-07T07:20:31;19.48;;;17.38;;
38859;SDS011;24609;48.316;16.174;2023-05-07T07:22:57;20.27;;;18.15;;
38859;SDS011;24609;48.316;16.174;2023-05-07T07:25:23;24.85;;;20.52;;
38859;SDS011;24609;48.316;16.174;2023-05-07T07:27:48;22.30;;;19.45;;
38859;SDS011;24609;48.316;16.174;2023-05-07T07:30:15;22.38;;;19.98;;
38859;SDS011;24609;48.316;16.174;2023-05-07T07:32:41;23.83;;;21.27;;
38859;SDS011;24609;48.316;16.174;2023-05-07T07:35:07;23.77;;;21.27;;
38859;SDS011;24609;48.316;16.174;2023-05-07T07:37:33;25.25;;;22.52;;
38859;SDS011;24609;48.316;16.174;2023-05-07T07:39:59;28.63;;;24.45;;
38859;SDS011;24609;48.316;16.174;2023-05-07T07:42:25;26.45;;;23.60;;
38859;SDS011;24609;48.316;16.174;2023-05-07T07:44:50;22.70;;;19.27;;
38859;SDS011;24609;48.316;16.174;2023-05-07T07:47:17;20.83;;;18.63;;
38859;SDS011;24609;48.316;16.174;2023-05-07T07:49:42;18.10;;;16.30;;
38859;SDS011;24609;48.316;16.174;2023-05-07T07:52:08;21.15;;;19.00;;
38859;SDS011;24609;48.316;16.174;2023-05-07T07:54:33;21.63;;;19.48;;
38859;SDS011;24609;48.316;16.174;2023-05-07T07:56:59;20.45;;;18.45;;
38859;SDS011;24609;48.316;16.174;2023-05-07T07:59:26;22.25;;;19.88;;
38859;SDS011;24609;48.316;16.174;2023-05-07T08:01:52;19.80;;;17.80;;
38859;SDS011;24609;48.316;16.174;2023-05-07T08:04:20;21.25;;;19.15;;
38859;SDS011;24609;48.316;16.174;2023-05-07T08:06:46;22.50;;;20.17;;
38859;SDS011;24609;48.316;16.174;2023-05-07T08:09:12;23.85;;;21.17;;
38859;SDS011;24609;48.316;16.174;2023-05-07T08:11:38;21.98;;;18.83;;
38859;SDS011;24609;48.316;16.174;2023-05-07T08:14:03;24.42;;;21.92;;
38859;SDS011;24609;48.316;16.174;2023-05-07T08:16:29;23.27;;;20.90;;
38859;SDS011;24609;48.316;16.174;2023-05-07T08:18:55;22.30;;;20.02;;
38859;SDS011;24609;48.316;16.174;2023-05-07T08:21:21;20.38;;;18.17;;
38859;SDS011;24609;48.316;16.174;2023-05-07T08:23:48;20.95;;;18.30;;
38859;SDS011;24609;48.316;16.174;2023-05-07T08:26:13;21.77;;;19.52;;
38859;SDS011;24609;48.316;16.174;2023-05-07T08:28:39;20.40;;;18.27;;
38859;SDS011;24609;48.316;16.174;2023-05-07T08:31:05;19.98;;;17.88;;
38859;SDS011;24609;48.316;16.174;2023-05-07T08:33:31;18.75;;;16.70;;
38859;SDS011;24609;48.316;16.174;2023-05-07T08:35:56;18.33;;;16.48;;
38859;SDS011;24609;48.316;16.174;2023-05-07T08:38:22;19.90;;;17.80;;
38859;SDS011;24609;48.316;16.174;2023-05-07T08:40:48;21.02;;;18.83;;
38859;SDS011;24609;48.316;16.174;2023-05-07T08:43:14;22.33;;;19.88;;
38859;SDS011;24609;48.316;16.174;2023-05-07T08:45:40;21.73;;;19.52;;
38859;SDS011;24609;48.316;16.174;2023-05-07T08:48:14;19.77;;;17.83;;
38859;SDS011;24609;48.316;16.174;2023-05-07T08:50:41;21.08;;;18.75;;
38859;SDS011;24609;48.316;16.174;2023-05-07T08:53:07;37.38;;;33.47;;
38859;SDS011;24609;48.316;16.174;2023-05-07T08:55:32;19.70;;;17.67;;
38859;SDS011;24609;48.316;16.174;2023-05-07T08:57:59;19.27;;;17.38;;
38859;SDS011;24609;48.316;16.174;2023-05-07T09:00:25;20.42;;;18.33;;
38859;SDS011;24609;48.316;16.174;2023-05-07T09:02:51;17.92;;;16.05;;
38859;SDS011;24609;48.316;16.174;2023-05-07T09:05:18;19.85;;;17.73;;
38859;SDS011;24609;48.316;16.174;2023-05-07T09:07:44;14.93;;;13.43;;
38859;SDS011;24609;48.316;16.174;2023-05-07T09:10:10;17.23;;;15.45;;
38859;SDS011;24609;48.316;16.174;2023-05-07T09:12:36;18.65;;;16.85;;
38859;SDS011;24609;48.316;16.174;2023-05-07T09:15:03;16.85;;;15.10;;
38859;SDS011;24609;48.316;16.174;2023-05-07T09:17:29;17.20;;;15.18;;
38859;SDS011;24609;48.316;16.174;2023-05-07T09:19:54;16.83;;;15.13;;
38859;SDS011;24609;48.316;16.174;2023-05-07T09:22:20;15.90;;;14.30;;
38859;SDS011;24609;48.316;16.174;2023-05-07T09:24:49;15.93;;;14.32;;
38859;SDS011;24609;48.316;16.174;2023-05-07T09:27:15;13.95;;;11.77;;
38859;SDS011;24609;48.316;16.174;2023-05-07T09:29:43;15.18;;;13.65;;
38859;SDS011;24609;48.316;16.174;2023-05-07T09:32:09;13.43;;;12.13;;
38859;SDS011;24609;48.316;16.174;2023-05-07T09:34:35;14.48;;;13.13;;
38859;SDS011;24609;48.316;16.174;2023-05-07T09:37:02;19.58;;;17.40;;
38859;SDS011;24609;48.316;16.174;2023-05-07T09:39:45;14.20;;;12.80;;
38859;SDS011;24609;48.316;16.174;2023-05-07T09:42:11;15.82;;;14.25;;
38859;SDS011;24609;48.316;16.174;2023-05-07T09:44:38;15.45;;;13.40;;
38859;SDS011;24609;48.316;16.174;2023-05-07T09:47:07;14.27;;;12.82;;
38859;SDS011;24609;48.316;16.174;2023-05-07T09:49:34;15.30;;;13.80;;
38859;SDS011;24609;48.316;16.174;2023-05-07T09:52:02;14.00;;;12.63;;
38859;SDS011;24609;48.316;16.174;2023-05-07T09:54:30;14.98;;;13.38;;
38859;SDS011;24609;48.316;16.174;2023-05-07T09:56:58;11.55;;;10.40;;
38859;SDS011;24609;48.316;16.174;2023-05-07T10:01:53;11.40;;;10.32;;
38859;SDS011;24609;48.316;16.174;2023-05-07T10:04:23;11.75;;;10.65;;
38859;SDS011;24609;48.316;16.174;2023-05-07T10:06:50;12.70;;;11.40;;
38859;SDS011;24609;48.316;16.174;2023-05-07T10:09:16;14.15;;;12.65;;
38859;SDS011;24609;48.316;16.174;2023-05-07T10:11:43;16.23;;;14.73;;
38859;SDS011;24609;48.316;16.174;2023-05-07T10:14:09;16.42;;;14.65;;
38859;SDS011;24609;48.316;16.174;2023-05-07T10:16:36;13.02;;;11.73;;
38859;SDS011;24609;48.316;16.174;2023-05-07T10:19:06;16.85;;;15.20;;
38859;SDS011;24609;48.316;16.174;2023-05-07T10:21:37;14.45;;;12.95;;
38859;SDS011;24609;48.316;16.174;2023-05-07T10:24:19;14.40;;;12.90;;
38859;SDS011;24609;48.316;16.174;2023-05-07T10:26:49;14.60;;;13.27;;
38859;SDS011;24609;48.316;16.174;2023-05-07T10:35:04;15.82;;;14.30;;
38859;SDS011;24609;48.316;16.174;2023-05-07T10:37:34;15.63;;;11.32;;
38859;SDS011;24609;48.316;16.174;2023-05-07T10:40:00;15.43;;;13.93;;
38859;SDS011;24609;48.316;16.174;2023-05-07T10:42:26;14.38;;;12.88;;
38859;SDS011;24609;48.316;16.174;2023-05-07T10:44:52;13.13;;;11.80;;
38859;SDS011;24609;48.316;16.174;2023-05-07T10:47:17;12.80;;;11.60;;
38859;SDS011;24609;48.316;16.174;2023-05-07T10:54:45;14.05;;;12.75;;
38859;SDS011;24609;48.316;16.174;2023-05-07T11:05:28;11.27;;;10.05;;
38859;SDS011;24609;48.316;16.174;2023-05-07T11:07:55;10.98;;;9.88;;
38859;SDS011;24609;48.316;16.174;2023-05-07T11:10:22;11.18;;;10.13;;
38859;SDS011;24609;48.316;16.174;2023-05-07T11:12:51;11.02;;;10.02;;
38859;SDS011;24609;48.316;16.174;2023-05-07T11:15:35;12.77;;;11.60;;
38859;SDS011;24609;48.316;16.174;2023-05-07T11:18:02;10.88;;;9.88;;
38859;SDS011;24609;48.316;16.174;2023-05-07T11:20:45;13.23;;;12.02;;
38859;SDS011;24609;48.316;16.174;2023-05-07T11:26:03;11.75;;;10.60;;
38859;SDS011;24609;48.316;16.174;2023-05-07T11:28:36;12.43;;;11.23;;
38859;SDS011;24609;48.316;16.174;2023-05-07T11:31:03;13.88;;;12.68;;
38859;SDS011;24609;48.316;16.174;2023-05-07T11:33:29;15.27;;;13.77;;
38859;SDS011;24609;48.316;16.174;2023-05-07T11:35:56;67.40;;;62.72;;
38859;SDS011;24609;48.316;16.174;2023-05-07T11:38:22;32.10;;;29.88;;
38859;SDS011;24609;48.316;16.174;2023-05-07T11:40:53;14.82;;;13.63;;
38859;SDS011;24609;48.316;16.174;2023-05-07T11:43:21;17.23;;;15.73;;
38859;SDS011;24609;48.316;16.174;2023-05-07T11:45:47;9.30;;;8.45;;
38859;SDS011;24609;48.316;16.174;2023-05-07T11:48:13;9.55;;;7.93;;
38859;SDS011;24609;48.316;16.174;2023-05-07T11:51:13;8.20;;;7.43;;
38859;SDS011;24609;48.316;16.174;2023-05-07T11:53:37;9.63;;;8.73;;
38859;SDS011;24609;48.316;16.174;2023-05-07T11:58:34;9.82;;;8.85;;
38859;SDS011;24609;48.316;16.174;2023-05-07T12:01:00;10.07;;;9.15;;
38859;SDS011;24609;48.316;16.174;2023-05-07T12:03:25;9.90;;;8.95;;
38859;SDS011;24609;48.316;16.174;2023-05-07T12:05:51;9.18;;;8.27;;
38859;SDS011;24609;48.316;16.174;2023-05-07T12:08:17;10.02;;;9.02;;
38859;SDS011;24609;48.316;16.174;2023-05-07T12:10:45;10.48;;;8.35;;
38859;SDS011;24609;48.316;16.174;2023-05-07T12:13:19;10.57;;;8.85;;
38859;SDS011;24609;48.316;16.174;2023-05-07T12:15:52;9.75;;;8.85;;
38859;SDS011;24609;48.316;16.174;2023-05-07T12:18:20;9.90;;;8.88;;
38859;SDS011;24609;48.316;16.174;2023-05-07T12:20:46;9.30;;;8.40;;
38859;SDS011;24609;48.316;16.174;2023-05-07T12:23:12;8.15;;;7.35;;
38859;SDS011;24609;48.316;16.174;2023-05-07T12:25:39;7.47;;;6.53;;
38859;SDS011;24609;48.316;16.174;2023-05-07T12:28:12;7.72;;;7.03;;
38859;SDS011;24609;48.316;16.174;2023-05-07T12:30:42;8.05;;;7.35;;
38859;SDS011;24609;48.316;16.174;2023-05-07T12:33:09;7.82;;;7.03;;
38859;SDS011;24609;48.316;16.174;2023-05-07T12:35:39;6.75;;;6.15;;
38859;SDS011;24609;48.316;16.174;2023-05-07T12:38:09;8.73;;;7.80;;
38859;SDS011;24609;48.316;16.174;2023-05-07T12:40:39;9.73;;;7.88;;
38859;SDS011;24609;48.316;16.174;2023-05-07T12:43:06;7.72;;;7.03;;
38859;SDS011;24609;48.316;16.174;2023-05-07T12:45:36;7.53;;;6.82;;
38859;SDS011;24609;48.316;16.174;2023-05-07T12:48:03;7.00;;;6.07;;
38859;SDS011;24609;48.316;16.174;2023-05-07T12:50:32;7.28;;;6.57;;
38859;SDS011;24609;48.316;16.174;2023-05-07T12:52:58;8.13;;;6.97;;
38859;SDS011;24609;48.316;16.174;2023-05-07T12:55:24;7.85;;;7.15;;
38859;SDS011;24609;48.316;16.174;2023-05-07T12:57:51;7.82;;;7.10;;
38859;SDS011;24609;48.316;16.174;2023-05-07T13:00:32;6.63;;;6.03;;
38859;SDS011;24609;48.316;16.174;2023-05-07T13:03:04;8.00;;;7.20;;
38859;SDS011;24609;48.316;16.174;2023-05-07T13:05:30;6.78;;;6.18;;
38859;SDS011;24609;48.316;16.174;2023-05-07T13:07:57;7.70;;;7.00;;
38859;SDS011;24609;48.316;16.174;2023-05-07T13:10:23;7.30;;;6.60;;
38859;SDS011;24609;48.316;16.174;2023-05-07T13:12:50;9.02;;;7.07;;
38859;SDS011;24609;48.316;16.174;2023-05-07T13:15:17;9.57;;;7.30;;
38859;SDS011;24609;48.316;16.174;2023-05-07T13:17:43;6.93;;;6.30;;
38859;SDS011;24609;48.316;16.174;2023-05-07T13:20:09;6.72;;;6.13;;
38859;SDS011;24609;48.316;16.174;2023-05-07T13:22:36;6.63;;;6.03;;
38859;SDS011;24609;48.316;16.174;2023-05-07T13:25:02;6.78;;;6.15;;
38859;SDS011;24609;48.316;16.174;2023-05-07T13:27:28;6.80;;;6.20;;
38859;SDS011;24609;48.316;16.174;2023-05-07T13:29:55;6.43;;;5.75;;
38859;SDS011;24609;48.316;16.174;2023-05-07T13:32:21;7.65;;;6.70;;
38859;SDS011;24609;48.316;16.174;2023-05-07T13:34:47;7.45;;;6.80;;
38859;SDS011;24609;48.316;16.174;2023-05-07T13:37:13;5.72;;;5.22;;
38859;SDS011;24609;48.316;16.174;2023-05-07T13:39:38;8.43;;;5.53;;
38859;SDS011;24609;48.316;16.174;2023-05-07T13:42:04;5.78;;;5.22;;
38859;SDS011;24609;48.316;16.174;2023-05-07T13:44:30;6.03;;;5.47;;
38859;SDS011;24609;48.316;16.174;2023-05-07T13:46:55;5.57;;;5.07;;
38859;SDS011;24609;48.316;16.174;2023-05-07T13:49:21;5.95;;;5.43;;
38859;SDS011;24609;48.316;16.174;2023-05-07T13:51:47;6.57;;;5.93;;
38859;SDS011;24609;48.316;16.174;2023-05-07T13:54:13;6.53;;;5.93;;
38859;SDS011;24609;48.316;16.174;2023-05-07T13:56:38;7.55;;;5.28;;
38859;SDS011;24609;48.316;16.174;2023-05-07T13:59:04;6.55;;;5.22;;
38859;SDS011;24609;48.316;16.174;2023-05-07T14:01:30;6.18;;;4.88;;
38859;SDS011;24609;48.316;16.174;2023-05-07T14:03:56;6.15;;;5.47;;
38859;SDS011;24609;48.316;16.174;2023-05-07T14:06:23;5.93;;;5.15;;
38859;SDS011;24609;48.316;16.174;2023-05-07T14:08:48;5.50;;;5.00;;
38859;SDS011;24609;48.316;16.174;2023-05-07T14:11:14;5.93;;;5.43;;
38859;SDS011;24609;48.316;16.174;2023-05-07T14:13:40;5.20;;;4.70;;
38859;SDS011;24609;48.316;16.174;2023-05-07T14:16:05;7.38;;;4.78;;
38859;SDS011;24609;48.316;16.174;2023-05-07T14:18:31;5.78;;;5.18;;
38859;SDS011;24609;48.316;16.174;2023-05-07T14:20:58;5.78;;;5.03;;
38859;SDS011;24609;48.316;16.174;2023-05-07T14:23:24;5.93;;;5.43;;
38859;SDS011;24609;48.316;16.174;2023-05-07T14:25:51;7.03;;;5.80;;
38859;SDS011;24609;48.316;16.174;2023-05-07T14:28:18;6.88;;;5.47;;
38859;SDS011;24609;48.316;16.174;2023-05-07T14:30:44;7.70;;;5.03;;
38859;SDS011;24609;48.316;16.174;2023-05-07T14:33:09;5.30;;;4.80;;
38859;SDS011;24609;48.316;16.174;2023-05-07T14:35:35;5.20;;;4.70;;
38859;SDS011;24609;48.316;16.174;2023-05-07T14:38:01;6.03;;;4.70;;
38859;SDS011;24609;48.316;16.174;2023-05-07T14:40:27;5.05;;;4.53;;
38859;SDS011;24609;48.316;16.174;2023-05-07T14:42:52;6.72;;;4.60;;
38859;SDS011;24609;48.316;16.174;2023-05-07T14:45:18;5.13;;;4.68;;
38859;SDS011;24609;48.316;16.174;2023-05-07T14:47:45;4.75;;;4.25;;